sensor_id;sensor_type;location;lat;lon;timestamp;P1;durP1;ratioP1;P2;durP2;ratioP2
57155;SDS011;43023;59.928;10.682;2022-12-01T00:02:09;1.60;;;1.50;;
57155;SDS011;43023;59.928;10.682;2022-12-01T00:04:35;2.05;;;1.67;;
57155;SDS011;43023;59.928;10.682;2022-12-01T00:07:01;2.40;;;1.77;;
57155;SDS011;43023;59.928;10.682;2022-12-01T00:09:27;1.40;;;1.30;;
57155;SDS011;43023;59.928;10.682;2022-12-01T00:12:11;3.22;;;1.45;;
57155;SDS011;43023;59.928;10.682;2022-12-01T00:14:37;2.50;;;1.45;;
57155;SDS011;43023;59.928;10.682;2022-12-01T00:17:03;4.63;;;1.30;;
57155;SDS011;43023;59.928;10.682;2022-12-01T00:19:30;1.23;;;1.13;;
57155;SDS011;43023;59.928;10.682;2022-12-01T00:21:56;1.60;;;1.50;;
57155;SDS011;43023;59.928;10.682;2022-12-01T00:24:22;2.70;;;1.35;;
57155;SDS011;43023;59.928;10.682;2022-12-01T00:26:49;1.35;;;1.25;;
57155;SDS011;43023;59.928;10.682;2022-12-01T00:29:15;1.85;;;1.60;;
57155;SDS011;43023;59.928;10.682;2022-12-01T00:31:41;2.20;;;1.33;;
57155;SDS011;43023;59.928;10.682;2022-12-01T00:34:11;2.20;;;1.35;;
57155;SDS011;43023;59.928;10.682;2022-12-01T00:36:43;1.45;;;1.35;;
57155;SDS011;43023;59.928;10.682;2022-12-01T00:39:09;1.63;;;1.10;;
57155;SDS011;43023;59.928;10.682;2022-12-01T00:41:35;0.85;;;0.82;;
57155;SDS011;43023;59.928;10.682;2022-12-01T00:44:01;1.23;;;1.13;;
57155;SDS011;43023;59.928;10.682;2022-12-01T00:46:27;1.80;;;1.10;;
57155;SDS011;43023;59.928;10.682;2022-12-01T00:48:53;1.38;;;1.20;;
57155;SDS011;43023;59.928;10.682;2022-12-01T00:51:20;1.83;;;1.00;;
57155;SDS011;43023;59.928;10.682;2022-12-01T00:53:46;1.27;;;1.02;;
57155;SDS011;43023;59.928;10.682;2022-12-01T00:56:12;1.10;;;0.85;;
57155;SDS011;43023;59.928;10.682;2022-12-01T00:58:39;2.38;;;1.00;;
57155;SDS011;43023;59.928;10.682;2022-12-01T01:01:05;1.33;;;1.08;;
57155;SDS011;43023;59.928;10.682;2022-12-01T01:03:31;1.67;;;1.15;;
57155;SDS011;43023;59.928;10.682;2022-12-01T01:06:08;1.63;;;1.27;;
57155;SDS011;43023;59.928;10.682;2022-12-01T01:08:35;0.77;;;0.75;;
57155;SDS011;43023;59.928;10.682;2022-12-01T01:11:01;1.60;;;1.02;;
57155;SDS011;43023;59.928;10.682;2022-12-01T01:13:27;1.02;;;0.90;;
57155;SDS011;43023;59.928;10.682;2022-12-01T01:16:13;2.30;;;0.95;;
57155;SDS011;43023;59.928;10.682;2022-12-01T01:18:39;1.20;;;0.77;;
57155;SDS011;43023;59.928;10.682;2022-12-01T01:21:06;1.10;;;0.70;;
57155;SDS011;43023;59.928;10.682;2022-12-01T01:23:33;2.17;;;1.17;;
57155;SDS011;43023;59.928;10.682;2022-12-01T01:26:00;2.25;;;1.23;;
57155;SDS011;43023;59.928;10.682;2022-12-01T01:28:26;0.93;;;0.65;;
57155;SDS011;43023;59.928;10.682;2022-12-01T01:30:52;1.48;;;0.88;;
57155;SDS011;43023;59.928;10.682;2022-12-01T01:33:18;1.42;;;0.80;;
57155;SDS011;43023;59.928;10.682;2022-12-01T01:35:44;0.95;;;0.90;;
57155;SDS011;43023;59.928;10.682;2022-12-01T01:38:10;0.68;;;0.68;;
57155;SDS011;43023;59.928;10.682;2022-12-01T01:40:45;1.70;;;0.88;;
57155;SDS011;43023;59.928;10.682;2022-12-01T01:43:15;1.00;;;0.90;;
57155;SDS011;43023;59.928;10.682;2022-12-01T01:45:41;0.95;;;0.70;;
57155;SDS011;43023;59.928;10.682;2022-12-01T01:48:08;1.02;;;0.80;;
57155;SDS011;43023;59.928;10.682;2022-12-01T01:50:34;0.73;;;0.65;;
57155;SDS011;43023;59.928;10.682;2022-12-01T01:53:02;1.15;;;0.80;;
57155;SDS011;43023;59.928;10.682;2022-12-01T01:55:29;1.05;;;0.73;;
57155;SDS011;43023;59.928;10.682;2022-12-01T01:57:56;0.70;;;0.70;;
57155;SDS011;43023;59.928;10.682;2022-12-01T02:00:23;1.02;;;0.60;;
57155;SDS011;43023;59.928;10.682;2022-12-01T02:02:49;1.48;;;0.63;;
57155;SDS011;43023;59.928;10.682;2022-12-01T02:07:42;0.75;;;0.75;;
57155;SDS011;43023;59.928;10.682;2022-12-01T02:10:10;2.25;;;0.90;;
57155;SDS011;43023;59.928;10.682;2022-12-01T02:22:51;2.25;;;1.02;;
57155;SDS011;43023;59.928;10.682;2022-12-01T02:37:59;0.88;;;0.80;;
57155;SDS011;43023;59.928;10.682;2022-12-01T02:45:49;0.82;;;0.50;;
57155;SDS011;43023;59.928;10.682;2022-12-01T02:48:19;0.93;;;0.60;;
57155;SDS011;43023;59.928;10.682;2022-12-01T02:50:46;0.98;;;0.68;;
57155;SDS011;43023;59.928;10.682;2022-12-01T02:53:13;0.55;;;0.43;;
57155;SDS011;43023;59.928;10.682;2022-12-01T02:55:47;1.00;;;0.73;;
57155;SDS011;43023;59.928;10.682;2022-12-01T02:58:13;0.67;;;0.63;;
57155;SDS011;43023;59.928;10.682;2022-12-01T03:06:13;0.47;;;0.25;;
57155;SDS011;43023;59.928;10.682;2022-12-01T03:11:10;0.32;;;0.30;;
57155;SDS011;43023;59.928;10.682;2022-12-01T03:21:25;0.40;;;0.40;;
57155;SDS011;43023;59.928;10.682;2022-12-01T03:23:55;0.82;;;0.40;;
57155;SDS011;43023;59.928;10.682;2022-12-01T03:26:23;0.50;;;0.47;;
57155;SDS011;43023;59.928;10.682;2022-12-01T03:28:51;0.28;;;0.28;;
57155;SDS011;43023;59.928;10.682;2022-12-01T03:31:19;1.05;;;0.45;;
57155;SDS011;43023;59.928;10.682;2022-12-01T03:33:57;0.30;;;0.30;;
57155;SDS011;43023;59.928;10.682;2022-12-01T03:36:26;0.30;;;0.20;;
57155;SDS011;43023;59.928;10.682;2022-12-01T03:38:54;0.45;;;0.45;;
57155;SDS011;43023;59.928;10.682;2022-12-01T03:41:24;0.30;;;0.30;;
57155;SDS011;43023;59.928;10.682;2022-12-01T03:43:54;0.30;;;0.30;;
57155;SDS011;43023;59.928;10.682;2022-12-01T03:48:47;0.20;;;0.20;;
57155;SDS011;43023;59.928;10.682;2022-12-01T03:51:18;0.35;;;0.30;;
57155;SDS011;43023;59.928;10.682;2022-12-01T03:54:06;0.40;;;0.40;;
57155;SDS011;43023;59.928;10.682;2022-12-01T03:56:41;0.50;;;0.30;;
57155;SDS011;43023;59.928;10.682;2022-12-01T03:59:09;0.38;;;0.38;;
57155;SDS011;43023;59.928;10.682;2022-12-01T04:01:35;0.20;;;0.20;;
57155;SDS011;43023;59.928;10.682;2022-12-01T04:04:05;0.28;;;0.28;;
57155;SDS011;43023;59.928;10.682;2022-12-01T04:06:32;0.45;;;0.40;;
57155;SDS011;43023;59.928;10.682;2022-12-01T04:08:58;0.15;;;0.10;;
57155;SDS011;43023;59.928;10.682;2022-12-01T04:11:24;0.30;;;0.30;;
57155;SDS011;43023;59.928;10.682;2022-12-01T04:14:09;0.50;;;0.25;;
57155;SDS011;43023;59.928;10.682;2022-12-01T04:16:35;0.32;;;0.30;;
57155;SDS011;43023;59.928;10.682;2022-12-01T04:19:01;0.65;;;0.50;;
57155;SDS011;43023;59.928;10.682;2022-12-01T04:21:27;0.28;;;0.25;;
57155;SDS011;43023;59.928;10.682;2022-12-01T04:23:53;0.40;;;0.40;;
57155;SDS011;43023;59.928;10.682;2022-12-01T04:26:26;0.10;;;0.10;;
57155;SDS011;43023;59.928;10.682;2022-12-01T04:28:52;0.30;;;0.30;;
57155;SDS011;43023;59.928;10.682;2022-12-01T04:31:18;0.30;;;0.30;;
57155;SDS011;43023;59.928;10.682;2022-12-01T04:33:44;0.30;;;0.30;;
57155;SDS011;43023;59.928;10.682;2022-12-01T04:36:11;0.30;;;0.30;;
57155;SDS011;43023;59.928;10.682;2022-12-01T04:38:37;0.10;;;0.10;;
57155;SDS011;43023;59.928;10.682;2022-12-01T04:41:09;0.20;;;0.20;;
57155;SDS011;43023;59.928;10.682;2022-12-01T04:43:35;0.20;;;0.20;;
57155;SDS011;43023;59.928;10.682;2022-12-01T04:46:02;0.40;;;0.30;;
57155;SDS011;43023;59.928;10.682;2022-12-01T04:48:28;0.20;;;0.10;;
57155;SDS011;43023;59.928;10.682;2022-12-01T04:50:54;0.15;;;0.15;;
57155;SDS011;43023;59.928;10.682;2022-12-01T04:53:20;0.32;;;0.32;;
57155;SDS011;43023;59.928;10.682;2022-12-01T04:55:46;0.38;;;0.20;;
57155;SDS011;43023;59.928;10.682;2022-12-01T04:58:12;0.30;;;0.20;;
57155;SDS011;43023;59.928;10.682;2022-12-01T05:00:38;0.45;;;0.32;;
57155;SDS011;43023;59.928;10.682;2022-12-01T05:03:04;0.20;;;0.20;;
57155;SDS011;43023;59.928;10.682;2022-12-01T05:05:30;0.30;;;0.30;;
57155;SDS011;43023;59.928;10.682;2022-12-01T05:07:59;0.20;;;0.20;;
57155;SDS011;43023;59.928;10.682;2022-12-01T05:10:25;0.10;;;0.10;;
57155;SDS011;43023;59.928;10.682;2022-12-01T05:12:51;0.20;;;0.20;;
57155;SDS011;43023;59.928;10.682;2022-12-01T05:15:17;0.40;;;0.40;;
57155;SDS011;43023;59.928;10.682;2022-12-01T05:17:43;0.17;;;0.17;;
57155;SDS011;43023;59.928;10.682;2022-12-01T05:20:14;0.20;;;0.20;;
57155;SDS011;43023;59.928;10.682;2022-12-01T05:23:01;0.30;;;0.30;;
57155;SDS011;43023;59.928;10.682;2022-12-01T05:25:27;1.58;;;0.20;;
57155;SDS011;43023;59.928;10.682;2022-12-01T05:27:53;0.10;;;0.10;;
57155;SDS011;43023;59.928;10.682;2022-12-01T05:30:19;0.20;;;0.20;;
57155;SDS011;43023;59.928;10.682;2022-12-01T05:32:45;0.20;;;0.20;;
57155;SDS011;43023;59.928;10.682;2022-12-01T05:35:11;0.30;;;0.30;;
57155;SDS011;43023;59.928;10.682;2022-12-01T05:37:37;1.95;;;0.20;;
57155;SDS011;43023;59.928;10.682;2022-12-01T05:40:04;0.25;;;0.20;;
57155;SDS011;43023;59.928;10.682;2022-12-01T05:42:30;1.40;;;0.35;;
57155;SDS011;43023;59.928;10.682;2022-12-01T05:44:56;0.20;;;0.20;;
57155;SDS011;43023;59.928;10.682;2022-12-01T05:47:22;0.20;;;0.20;;
57155;SDS011;43023;59.928;10.682;2022-12-01T05:49:48;4.05;;;0.30;;
57155;SDS011;43023;59.928;10.682;2022-12-01T05:52:14;1.92;;;0.20;;
57155;SDS011;43023;59.928;10.682;2022-12-01T05:54:40;0.43;;;0.30;;
57155;SDS011;43023;59.928;10.682;2022-12-01T05:57:06;0.43;;;0.30;;
57155;SDS011;43023;59.928;10.682;2022-12-01T05:59:32;0.38;;;0.30;;
57155;SDS011;43023;59.928;10.682;2022-12-01T06:01:58;1.75;;;0.40;;
57155;SDS011;43023;59.928;10.682;2022-12-01T06:04:24;0.25;;;0.17;;
57155;SDS011;43023;59.928;10.682;2022-12-01T06:06:50;0.20;;;0.20;;
57155;SDS011;43023;59.928;10.682;2022-12-01T06:09:16;0.20;;;0.20;;
57155;SDS011;43023;59.928;10.682;2022-12-01T06:11:42;0.68;;;0.30;;
57155;SDS011;43023;59.928;10.682;2022-12-01T06:14:08;0.30;;;0.30;;
57155;SDS011;43023;59.928;10.682;2022-12-01T06:16:34;3.50;;;0.30;;
57155;SDS011;43023;59.928;10.682;2022-12-01T06:19:00;0.55;;;0.30;;
57155;SDS011;43023;59.928;10.682;2022-12-01T06:21:26;0.50;;;0.50;;
57155;SDS011;43023;59.928;10.682;2022-12-01T06:23:52;1.05;;;0.38;;
57155;SDS011;43023;59.928;10.682;2022-12-01T06:26:18;1.30;;;0.40;;
57155;SDS011;43023;59.928;10.682;2022-12-01T06:28:44;3.25;;;0.50;;
57155;SDS011;43023;59.928;10.682;2022-12-01T06:31:10;2.78;;;0.60;;
57155;SDS011;43023;59.928;10.682;2022-12-01T06:33:36;1.80;;;0.50;;
57155;SDS011;43023;59.928;10.682;2022-12-01T06:36:03;2.13;;;1.13;;
57155;SDS011;43023;59.928;10.682;2022-12-01T06:38:30;3.67;;;0.60;;
57155;SDS011;43023;59.928;10.682;2022-12-01T06:40:56;2.72;;;0.52;;
57155;SDS011;43023;59.928;10.682;2022-12-01T06:43:22;2.65;;;0.50;;
57155;SDS011;43023;59.928;10.682;2022-12-01T06:45:49;1.75;;;0.43;;
57155;SDS011;43023;59.928;10.682;2022-12-01T06:48:15;3.05;;;0.70;;
57155;SDS011;43023;59.928;10.682;2022-12-01T06:50:41;2.45;;;0.60;;
57155;SDS011;43023;59.928;10.682;2022-12-01T06:53:07;1.50;;;0.50;;
57155;SDS011;43023;59.928;10.682;2022-12-01T06:55:34;1.05;;;0.60;;
57155;SDS011;43023;59.928;10.682;2022-12-01T06:58:00;1.58;;;0.47;;
57155;SDS011;43023;59.928;10.682;2022-12-01T07:00:26;3.08;;;0.20;;
57155;SDS011;43023;59.928;10.682;2022-12-01T07:02:52;3.72;;;0.40;;
57155;SDS011;43023;59.928;10.682;2022-12-01T07:05:19;1.73;;;0.40;;
57155;SDS011;43023;59.928;10.682;2022-12-01T07:07:45;1.35;;;0.35;;
57155;SDS011;43023;59.928;10.682;2022-12-01T07:10:11;3.10;;;0.52;;
57155;SDS011;43023;59.928;10.682;2022-12-01T07:12:37;1.45;;;0.60;;
57155;SDS011;43023;59.928;10.682;2022-12-01T07:15:04;3.30;;;0.60;;
57155;SDS011;43023;59.928;10.682;2022-12-01T07:17:30;1.65;;;0.60;;
57155;SDS011;43023;59.928;10.682;2022-12-01T07:19:56;2.35;;;0.43;;
57155;SDS011;43023;59.928;10.682;2022-12-01T07:22:23;1.95;;;0.70;;
57155;SDS011;43023;59.928;10.682;2022-12-01T07:24:49;0.65;;;0.40;;
57155;SDS011;43023;59.928;10.682;2022-12-01T07:27:15;2.78;;;0.63;;
57155;SDS011;43023;59.928;10.682;2022-12-01T07:29:41;1.27;;;0.75;;
57155;SDS011;43023;59.928;10.682;2022-12-01T07:32:07;0.90;;;0.40;;
57155;SDS011;43023;59.928;10.682;2022-12-01T07:34:33;0.40;;;0.40;;
57155;SDS011;43023;59.928;10.682;2022-12-01T07:36:59;2.65;;;0.55;;
57155;SDS011;43023;59.928;10.682;2022-12-01T07:39:25;0.32;;;0.32;;
57155;SDS011;43023;59.928;10.682;2022-12-01T07:41:51;1.17;;;0.40;;
57155;SDS011;43023;59.928;10.682;2022-12-01T07:44:17;0.40;;;0.40;;
57155;SDS011;43023;59.928;10.682;2022-12-01T07:46:43;0.82;;;0.50;;
57155;SDS011;43023;59.928;10.682;2022-12-01T07:49:09;0.47;;;0.30;;
57155;SDS011;43023;59.928;10.682;2022-12-01T07:51:38;0.40;;;0.40;;
57155;SDS011;43023;59.928;10.682;2022-12-01T07:54:04;0.40;;;0.40;;
57155;SDS011;43023;59.928;10.682;2022-12-01T07:56:31;0.70;;;0.20;;
57155;SDS011;43023;59.928;10.682;2022-12-01T07:58:57;0.90;;;0.47;;
57155;SDS011;43023;59.928;10.682;2022-12-01T08:01:23;0.77;;;0.40;;
57155;SDS011;43023;59.928;10.682;2022-12-01T08:03:50;0.57;;;0.30;;
57155;SDS011;43023;59.928;10.682;2022-12-01T08:06:17;0.70;;;0.35;;
57155;SDS011;43023;59.928;10.682;2022-12-01T08:08:43;2.72;;;0.30;;
57155;SDS011;43023;59.928;10.682;2022-12-01T08:11:10;1.23;;;0.40;;
57155;SDS011;43023;59.928;10.682;2022-12-01T08:13:37;1.10;;;0.40;;
57155;SDS011;43023;59.928;10.682;2022-12-01T08:16:04;0.63;;;0.40;;
57155;SDS011;43023;59.928;10.682;2022-12-01T08:18:32;2.45;;;0.57;;
57155;SDS011;43023;59.928;10.682;2022-12-01T08:20:58;0.47;;;0.30;;
57155;SDS011;43023;59.928;10.682;2022-12-01T08:23:24;0.57;;;0.30;;
57155;SDS011;43023;59.928;10.682;2022-12-01T08:25:50;1.80;;;0.43;;
57155;SDS011;43023;59.928;10.682;2022-12-01T08:28:16;2.38;;;0.70;;
57155;SDS011;43023;59.928;10.682;2022-12-01T08:30:43;1.23;;;0.63;;
57155;SDS011;43023;59.928;10.682;2022-12-01T08:33:09;0.55;;;0.20;;
57155;SDS011;43023;59.928;10.682;2022-12-01T08:35:35;1.17;;;0.20;;
57155;SDS011;43023;59.928;10.682;2022-12-01T08:38:01;0.32;;;0.28;;
57155;SDS011;43023;59.928;10.682;2022-12-01T08:40:28;0.68;;;0.45;;
57155;SDS011;43023;59.928;10.682;2022-12-01T08:42:54;0.50;;;0.50;;
57155;SDS011;43023;59.928;10.682;2022-12-01T08:45:20;4.60;;;0.40;;
57155;SDS011;43023;59.928;10.682;2022-12-01T08:47:47;0.50;;;0.50;;
57155;SDS011;43023;59.928;10.682;2022-12-01T08:50:13;0.68;;;0.40;;
57155;SDS011;43023;59.928;10.682;2022-12-01T08:52:39;0.55;;;0.32;;
57155;SDS011;43023;59.928;10.682;2022-12-01T08:55:05;0.35;;;0.35;;
57155;SDS011;43023;59.928;10.682;2022-12-01T08:57:32;0.43;;;0.40;;
57155;SDS011;43023;59.928;10.682;2022-12-01T08:59:58;1.25;;;0.40;;
57155;SDS011;43023;59.928;10.682;2022-12-01T09:02:24;1.55;;;0.30;;
57155;SDS011;43023;59.928;10.682;2022-12-01T09:04:50;1.80;;;0.55;;
57155;SDS011;43023;59.928;10.682;2022-12-01T09:07:16;2.13;;;0.43;;
57155;SDS011;43023;59.928;10.682;2022-12-01T09:09:42;2.50;;;0.57;;
57155;SDS011;43023;59.928;10.682;2022-12-01T09:12:09;3.65;;;0.70;;
57155;SDS011;43023;59.928;10.682;2022-12-01T09:14:35;0.50;;;0.40;;
57155;SDS011;43023;59.928;10.682;2022-12-01T09:17:03;1.40;;;0.73;;
57155;SDS011;43023;59.928;10.682;2022-12-01T09:19:29;2.33;;;0.60;;
57155;SDS011;43023;59.928;10.682;2022-12-01T09:21:55;1.10;;;0.40;;
57155;SDS011;43023;59.928;10.682;2022-12-01T09:24:21;6.00;;;0.65;;
57155;SDS011;43023;59.928;10.682;2022-12-01T09:26:47;2.28;;;0.45;;
57155;SDS011;43023;59.928;10.682;2022-12-01T09:29:14;1.00;;;0.30;;
57155;SDS011;43023;59.928;10.682;2022-12-01T09:31:41;0.30;;;0.30;;
57155;SDS011;43023;59.928;10.682;2022-12-01T09:34:09;0.32;;;0.30;;
57155;SDS011;43023;59.928;10.682;2022-12-01T09:36:36;0.43;;;0.30;;
57155;SDS011;43023;59.928;10.682;2022-12-01T09:39:03;0.60;;;0.50;;
57155;SDS011;43023;59.928;10.682;2022-12-01T09:41:32;0.45;;;0.40;;
57155;SDS011;43023;59.928;10.682;2022-12-01T09:46:26;0.20;;;0.20;;
57155;SDS011;43023;59.928;10.682;2022-12-01T09:48:53;0.40;;;0.40;;
57155;SDS011;43023;59.928;10.682;2022-12-01T09:51:22;0.50;;;0.40;;
57155;SDS011;43023;59.928;10.682;2022-12-01T09:53:49;1.15;;;0.40;;
57155;SDS011;43023;59.928;10.682;2022-12-01T09:58:44;0.77;;;0.38;;
57155;SDS011;43023;59.928;10.682;2022-12-01T10:01:13;2.03;;;0.45;;
57155;SDS011;43023;59.928;10.682;2022-12-01T10:03:42;0.55;;;0.50;;
57155;SDS011;43023;59.928;10.682;2022-12-01T10:06:14;0.82;;;0.50;;
57155;SDS011;43023;59.928;10.682;2022-12-01T10:08:49;0.32;;;0.32;;
57155;SDS011;43023;59.928;10.682;2022-12-01T10:11:28;1.00;;;0.30;;
57155;SDS011;43023;59.928;10.682;2022-12-01T10:13:57;0.25;;;0.25;;
57155;SDS011;43023;59.928;10.682;2022-12-01T10:16:25;2.35;;;0.30;;
57155;SDS011;43023;59.928;10.682;2022-12-01T10:19:38;1.80;;;0.40;;
57155;SDS011;43023;59.928;10.682;2022-12-01T10:26:51;1.08;;;0.45;;
57155;SDS011;43023;59.928;10.682;2022-12-01T10:32:08;0.88;;;0.30;;
57155;SDS011;43023;59.928;10.682;2022-12-01T10:34:37;8.95;;;0.68;;
57155;SDS011;43023;59.928;10.682;2022-12-01T10:37:03;0.80;;;0.30;;
57155;SDS011;43023;59.928;10.682;2022-12-01T10:39:32;1.38;;;0.30;;
57155;SDS011;43023;59.928;10.682;2022-12-01T10:42:23;1.05;;;0.28;;
57155;SDS011;43023;59.928;10.682;2022-12-01T10:44:45;0.80;;;0.30;;
57155;SDS011;43023;59.928;10.682;2022-12-01T10:47:22;0.65;;;0.30;;
57155;SDS011;43023;59.928;10.682;2022-12-01T10:49:49;2.17;;;0.75;;
57155;SDS011;43023;59.928;10.682;2022-12-01T10:55:01;2.10;;;0.90;;
57155;SDS011;43023;59.928;10.682;2022-12-01T10:57:28;3.22;;;0.40;;
57155;SDS011;43023;59.928;10.682;2022-12-01T11:00:04;0.50;;;0.47;;
57155;SDS011;43023;59.928;10.682;2022-12-01T11:02:40;1.92;;;0.43;;
57155;SDS011;43023;59.928;10.682;2022-12-01T11:05:18;0.45;;;0.25;;
57155;SDS011;43023;59.928;10.682;2022-12-01T11:07:45;1.33;;;0.43;;
57155;SDS011;43023;59.928;10.682;2022-12-01T11:12:41;0.43;;;0.40;;
57155;SDS011;43023;59.928;10.682;2022-12-01T11:15:16;1.27;;;0.50;;
57155;SDS011;43023;59.928;10.682;2022-12-01T11:17:42;3.05;;;0.55;;
57155;SDS011;43023;59.928;10.682;2022-12-01T11:20:23;1.23;;;0.45;;
57155;SDS011;43023;59.928;10.682;2022-12-01T11:22:50;2.33;;;0.45;;
57155;SDS011;43023;59.928;10.682;2022-12-01T11:25:18;2.58;;;0.40;;
57155;SDS011;43023;59.928;10.682;2022-12-01T11:27:49;2.85;;;0.40;;
57155;SDS011;43023;59.928;10.682;2022-12-01T11:30:19;0.68;;;0.20;;
57155;SDS011;43023;59.928;10.682;2022-12-01T11:33:04;0.30;;;0.30;;
57155;SDS011;43023;59.928;10.682;2022-12-01T11:35:32;1.35;;;0.30;;
57155;SDS011;43023;59.928;10.682;2022-12-01T11:38:00;1.00;;;0.10;;
57155;SDS011;43023;59.928;10.682;2022-12-01T11:40:28;0.20;;;0.20;;
57155;SDS011;43023;59.928;10.682;2022-12-01T11:42:59;1.27;;;0.20;;
57155;SDS011;43023;59.928;10.682;2022-12-01T11:45:33;0.80;;;0.38;;
57155;SDS011;43023;59.928;10.682;2022-12-01T11:48:24;0.32;;;0.20;;
57155;SDS011;43023;59.928;10.682;2022-12-01T11:50:59;1.85;;;0.25;;
57155;SDS011;43023;59.928;10.682;2022-12-01T11:53:27;0.77;;;0.20;;
57155;SDS011;43023;59.928;10.682;2022-12-01T11:58:38;0.70;;;0.38;;
57155;SDS011;43023;59.928;10.682;2022-12-01T12:01:10;2.22;;;0.28;;
57155;SDS011;43023;59.928;10.682;2022-12-01T12:03:40;1.85;;;0.30;;
57155;SDS011;43023;59.928;10.682;2022-12-01T12:11:22;1.40;;;0.40;;
57155;SDS011;43023;59.928;10.682;2022-12-01T12:16:42;0.20;;;0.20;;
57155;SDS011;43023;59.928;10.682;2022-12-01T12:26:51;2.60;;;0.13;;
57155;SDS011;43023;59.928;10.682;2022-12-01T12:34:46;2.53;;;0.45;;
57155;SDS011;43023;59.928;10.682;2022-12-01T12:39:46;1.40;;;0.30;;
57155;SDS011;43023;59.928;10.682;2022-12-01T12:42:25;0.25;;;0.20;;
57155;SDS011;43023;59.928;10.682;2022-12-01T12:44:56;1.80;;;0.30;;
57155;SDS011;43023;59.928;10.682;2022-12-01T12:52:24;0.28;;;0.20;;
57155;SDS011;43023;59.928;10.682;2022-12-01T12:54:56;2.75;;;0.38;;
57155;SDS011;43023;59.928;10.682;2022-12-01T12:57:26;0.98;;;0.20;;
57155;SDS011;43023;59.928;10.682;2022-12-01T13:00:02;1.55;;;0.20;;
57155;SDS011;43023;59.928;10.682;2022-12-01T13:07:27;0.80;;;0.30;;
57155;SDS011;43023;59.928;10.682;2022-12-01T13:09:58;0.88;;;0.28;;
57155;SDS011;43023;59.928;10.682;2022-12-01T13:12:30;5.43;;;0.40;;
57155;SDS011;43023;59.928;10.682;2022-12-01T13:17:25;0.70;;;0.40;;
57155;SDS011;43023;59.928;10.682;2022-12-01T13:19:52;1.45;;;0.20;;
57155;SDS011;43023;59.928;10.682;2022-12-01T13:22:20;1.63;;;0.50;;
57155;SDS011;43023;59.928;10.682;2022-12-01T13:24:46;0.90;;;0.55;;
57155;SDS011;43023;59.928;10.682;2022-12-01T13:27:15;0.63;;;0.30;;
57155;SDS011;43023;59.928;10.682;2022-12-01T13:29:48;0.13;;;0.10;;
57155;SDS011;43023;59.928;10.682;2022-12-01T13:34:41;0.40;;;0.20;;
57155;SDS011;43023;59.928;10.682;2022-12-01T13:37:08;0.45;;;0.25;;
57155;SDS011;43023;59.928;10.682;2022-12-01T13:39:36;1.73;;;0.30;;
57155;SDS011;43023;59.928;10.682;2022-12-01T13:44:51;0.57;;;0.30;;
57155;SDS011;43023;59.928;10.682;2022-12-01T13:52:31;0.60;;;0.50;;
57155;SDS011;43023;59.928;10.682;2022-12-01T14:02:45;1.55;;;0.60;;
57155;SDS011;43023;59.928;10.682;2022-12-01T14:08:14;0.68;;;0.40;;
57155;SDS011;43023;59.928;10.682;2022-12-01T14:10:40;1.05;;;0.52;;
57155;SDS011;43023;59.928;10.682;2022-12-01T14:13:13;4.18;;;0.60;;
57155;SDS011;43023;59.928;10.682;2022-12-01T14:15:40;1.67;;;0.63;;
57155;SDS011;43023;59.928;10.682;2022-12-01T14:20:43;1.70;;;0.52;;
57155;SDS011;43023;59.928;10.682;2022-12-01T14:25:38;1.55;;;0.75;;
57155;SDS011;43023;59.928;10.682;2022-12-01T14:28:11;1.20;;;0.60;;
57155;SDS011;43023;59.928;10.682;2022-12-01T14:35:49;1.20;;;0.30;;
57155;SDS011;43023;59.928;10.682;2022-12-01T14:38:15;2.75;;;0.57;;
57155;SDS011;43023;59.928;10.682;2022-12-01T14:40:41;2.92;;;0.60;;
57155;SDS011;43023;59.928;10.682;2022-12-01T14:43:08;2.90;;;0.73;;
57155;SDS011;43023;59.928;10.682;2022-12-01T14:46:00;1.85;;;0.45;;
57155;SDS011;43023;59.928;10.682;2022-12-01T14:51:04;2.30;;;0.82;;
57155;SDS011;43023;59.928;10.682;2022-12-01T14:53:31;0.70;;;0.50;;
57155;SDS011;43023;59.928;10.682;2022-12-01T14:55:59;2.13;;;0.40;;
57155;SDS011;43023;59.928;10.682;2022-12-01T14:58:27;2.42;;;0.65;;
57155;SDS011;43023;59.928;10.682;2022-12-01T15:03:22;1.10;;;0.38;;
57155;SDS011;43023;59.928;10.682;2022-12-01T15:05:48;3.38;;;0.45;;
57155;SDS011;43023;59.928;10.682;2022-12-01T15:08:20;1.98;;;0.63;;
57155;SDS011;43023;59.928;10.682;2022-12-01T15:10:48;0.73;;;0.60;;
57155;SDS011;43023;59.928;10.682;2022-12-01T15:13:57;0.60;;;0.60;;
57155;SDS011;43023;59.928;10.682;2022-12-01T15:16:10;2.13;;;0.70;;
57155;SDS011;43023;59.928;10.682;2022-12-01T15:18:37;0.85;;;0.50;;
57155;SDS011;43023;59.928;10.682;2022-12-01T15:21:08;0.30;;;0.30;;
57155;SDS011;43023;59.928;10.682;2022-12-01T15:23:36;0.90;;;0.50;;
57155;SDS011;43023;59.928;10.682;2022-12-01T15:26:02;1.73;;;0.65;;
57155;SDS011;43023;59.928;10.682;2022-12-01T15:28:29;0.95;;;0.32;;
57155;SDS011;43023;59.928;10.682;2022-12-01T15:30:56;2.35;;;0.60;;
57155;SDS011;43023;59.928;10.682;2022-12-01T15:33:23;1.45;;;0.52;;
57155;SDS011;43023;59.928;10.682;2022-12-01T15:35:50;2.17;;;0.70;;
57155;SDS011;43023;59.928;10.682;2022-12-01T15:38:17;1.75;;;0.60;;
57155;SDS011;43023;59.928;10.682;2022-12-01T15:40:44;0.85;;;0.52;;
57155;SDS011;43023;59.928;10.682;2022-12-01T15:43:18;4.97;;;0.63;;
57155;SDS011;43023;59.928;10.682;2022-12-01T15:45:57;8.23;;;1.00;;
57155;SDS011;43023;59.928;10.682;2022-12-01T15:48:28;9.55;;;0.70;;
57155;SDS011;43023;59.928;10.682;2022-12-01T15:51:28;0.82;;;0.30;;
57155;SDS011;43023;59.928;10.682;2022-12-01T15:53:49;0.30;;;0.30;;
57155;SDS011;43023;59.928;10.682;2022-12-01T15:56:16;2.00;;;0.57;;
57155;SDS011;43023;59.928;10.682;2022-12-01T15:58:49;1.05;;;0.55;;
57155;SDS011;43023;59.928;10.682;2022-12-01T16:01:16;0.55;;;0.40;;
57155;SDS011;43023;59.928;10.682;2022-12-01T16:06:15;1.80;;;0.32;;
57155;SDS011;43023;59.928;10.682;2022-12-01T16:08:49;0.63;;;0.40;;
57155;SDS011;43023;59.928;10.682;2022-12-01T16:11:17;1.58;;;0.50;;
57155;SDS011;43023;59.928;10.682;2022-12-01T16:13:46;2.25;;;0.50;;
57155;SDS011;43023;59.928;10.682;2022-12-01T16:16:20;2.15;;;0.40;;
57155;SDS011;43023;59.928;10.682;2022-12-01T16:19:22;1.80;;;0.75;;
57155;SDS011;43023;59.928;10.682;2022-12-01T16:24:10;1.48;;;0.60;;
57155;SDS011;43023;59.928;10.682;2022-12-01T16:26:44;2.60;;;0.50;;
57155;SDS011;43023;59.928;10.682;2022-12-01T16:29:17;1.35;;;0.77;;
57155;SDS011;43023;59.928;10.682;2022-12-01T16:31:45;1.67;;;0.50;;
57155;SDS011;43023;59.928;10.682;2022-12-01T16:34:11;2.88;;;0.73;;
57155;SDS011;43023;59.928;10.682;2022-12-01T16:36:38;1.10;;;0.75;;
57155;SDS011;43023;59.928;10.682;2022-12-01T16:39:05;2.40;;;0.55;;
57155;SDS011;43023;59.928;10.682;2022-12-01T16:41:35;2.00;;;0.80;;
57155;SDS011;43023;59.928;10.682;2022-12-01T16:44:05;3.35;;;1.33;;
57155;SDS011;43023;59.928;10.682;2022-12-01T16:46:31;0.75;;;0.40;;
57155;SDS011;43023;59.928;10.682;2022-12-01T16:48:57;4.10;;;0.70;;
57155;SDS011;43023;59.928;10.682;2022-12-01T16:51:23;1.27;;;0.60;;
57155;SDS011;43023;59.928;10.682;2022-12-01T16:53:49;2.50;;;0.50;;
57155;SDS011;43023;59.928;10.682;2022-12-01T16:56:15;1.85;;;0.50;;
57155;SDS011;43023;59.928;10.682;2022-12-01T16:58:41;15.40;;;1.33;;
57155;SDS011;43023;59.928;10.682;2022-12-01T17:01:08;2.42;;;0.65;;
57155;SDS011;43023;59.928;10.682;2022-12-01T17:03:35;2.63;;;0.47;;
57155;SDS011;43023;59.928;10.682;2022-12-01T17:06:01;3.83;;;0.60;;
57155;SDS011;43023;59.928;10.682;2022-12-01T17:08:28;4.43;;;0.70;;